Terminal Aerodrome Forecast
Issued by NWS Lake Charles, LA

Home | Current Version | Previous Version | Text Only | Print | Product List | Glossary On
Versions: 1 2 3 4 5 6 7 8 9 10 11 12 13 14 15 16
000
FTUS44 KLCH 171700
TAFAEX
TAF
KAEX 171735Z 1718/1818 10005KT P6SM BKN100
     FM180700 10003KT P6SM VCSH BKN050
     FM181400 12006KT P6SM VCSH BKN025 OVC050 PROB30 1814/1818 4SM
      -SHRA=

USA.gov is the U.S. government's official web portal to all federal, state and local government web resources and services.